Time;durP1;ratioP1;P1;durP2;ratioP2;P2;SDS_P1;SDS_P2;PMS_P1;PMS_P2;Temp;Humidity;BMP_temperature;BMP_pressure;BME280_temperature;BME280_humidity;BME280_pressure;Samples;Min_cycle;Max_cycle;Signal;HPM_P1;HPM_P2
2022/01/14 00:00:25;;;;;;;29.80;13.82;;;;;;;;;;5142739;28;20047;-60
2022/01/14 00:02:52;;;;;;;33.17;11.40;;;;;;;;;;5149661;27;20054;-61
2022/01/14 00:05:18;;;;;;;30.83;13.70;;;;;;;;;;5149980;27;20039;-62
2022/01/14 00:07:44;;;;;;;28.08;12.95;;;;;;;;;;5144451;28;20039;-60
2022/01/14 00:10:10;;;;;;;25.10;13.38;;;;;;;;;;5146198;27;20039;-61
2022/01/14 00:12:40;;;;;;;22.65;9.85;;;;;;;;;;5147850;27;20043;-60
2022/01/14 00:15:24;;;;;;;30.77;13.95;;;;;;;;;;5147216;27;20070;-60
2022/01/14 00:17:51;;;;;;;20.50;11.70;;;;;;;;;;5149094;27;20051;-60
2022/01/14 00:20:17;;;;;;;27.88;13.40;;;;;;;;;;5147062;27;20043;-60
2022/01/14 00:22:43;;;;;;;28.80;13.68;;;;;;;;;;5149137;27;20074;-61
2022/01/14 00:33:10;;;;;;;20.90;11.07;;;;;;;;;;5147118;27;20072;-61
2022/01/14 00:35:37;;;;;;;36.97;12.57;;;;;;;;;;5148073;27;20337;-61
2022/01/14 00:38:04;;;;;;;33.28;11.85;;;;;;;;;;5148253;27;20043;-60
2022/01/14 00:40:30;;;;;;;31.33;12.67;;;;;;;;;;5148868;27;20053;-60
2022/01/14 00:42:56;;;;;;;28.42;12.35;;;;;;;;;;5147447;27;20083;-60
2022/01/14 00:45:23;;;;;;;24.15;10.77;;;;;;;;;;5148362;27;20039;-61
2022/01/14 00:47:49;;;;;;;36.72;14.75;;;;;;;;;;5148562;27;20070;-61
2022/01/14 00:50:16;;;;;;;36.60;13.52;;;;;;;;;;5147347;27;20080;-61
2022/01/14 00:52:43;;;;;;;33.25;14.63;;;;;;;;;;5148325;27;20043;-61
2022/01/14 00:55:12;;;;;;;34.67;14.13;;;;;;;;;;5148624;27;20099;-60
2022/01/14 01:00:23;;;;;;;30.38;12.10;;;;;;;;;;5146924;27;20055;-60
2022/01/14 01:02:49;;;;;;;46.75;14.63;;;;;;;;;;5147104;27;20095;-60
2022/01/14 01:05:16;;;;;;;34.05;14.40;;;;;;;;;;5147067;27;20070;-60
2022/01/14 01:07:43;;;;;;;34.65;14.20;;;;;;;;;;5148370;27;20322;-60
2022/01/14 01:10:10;;;;;;;32.00;14.70;;;;;;;;;;5148483;27;20039;-60
2022/01/14 01:12:48;;;;;;;27.15;12.77;;;;;;;;;;5148010;27;20071;-60
2022/01/14 01:15:16;;;;;;;30.85;14.05;;;;;;;;;;5147696;27;20087;-60
2022/01/14 01:17:43;;;;;;;36.17;15.82;;;;;;;;;;5146550;27;20055;-60
2022/01/14 01:20:14;;;;;;;30.75;13.32;;;;;;;;;;5145562;27;20506;-60
2022/01/14 01:22:40;;;;;;;25.67;13.27;;;;;;;;;;5147887;27;20051;-60
2022/01/14 01:25:08;;;;;;;33.22;12.75;;;;;;;;;;5131056;27;20063;-61
2022/01/14 01:27:38;;;;;;;;;;;;;;;;;;5126707;28;20054;-60
2022/01/14 01:30:37;;;;;;;26.50;12.32;;;;;;;;;;5126964;28;19919;-60
2022/01/14 01:33:03;;;;;;;32.08;13.85;;;;;;;;;;5126763;28;20514;-61
2022/01/14 01:35:29;;;;;;;29.20;11.68;;;;;;;;;;5145943;27;20088;-60
2022/01/14 01:37:55;;;;;;;29.92;13.93;;;;;;;;;;5146166;27;20047;-60
2022/01/14 01:40:22;;;;;;;33.50;12.80;;;;;;;;;;5147203;27;20067;-61
2022/01/14 01:42:49;;;;;;;31.53;11.90;;;;;;;;;;5147320;27;20062;-61
2022/01/14 01:45:21;;;;;;;29.08;14.15;;;;;;;;;;5147528;27;20467;-60
2022/01/14 01:47:50;;;;;;;38.80;15.43;;;;;;;;;;5147170;27;20047;-60
2022/01/14 01:50:19;;;;;;;30.35;13.68;;;;;;;;;;5144659;27;20043;-60
2022/01/14 01:52:45;;;;;;;33.05;14.82;;;;;;;;;;5146204;27;20506;-60
2022/01/14 01:55:12;;;;;;;23.20;13.32;;;;;;;;;;5147115;27;20054;-60
2022/01/14 01:57:41;;;;;;;26.52;12.82;;;;;;;;;;5146972;27;20051;-60
2022/01/14 02:00:08;;;;;;;34.85;13.73;;;;;;;;;;5147458;27;20050;-60
2022/01/14 02:02:36;;;;;;;37.00;15.35;;;;;;;;;;5146362;27;20080;-60
2022/01/14 02:05:03;;;;;;;29.15;14.15;;;;;;;;;;5146645;27;20108;-60
2022/01/14 02:07:29;;;;;;;37.70;14.80;;;;;;;;;;5147034;27;20095;-60
2022/01/14 02:09:55;;;;;;;29.02;13.88;;;;;;;;;;5147024;27;20130;-60
2022/01/14 02:12:22;;;;;;;38.10;14.07;;;;;;;;;;5146829;27;20258;-61
2022/01/14 02:14:56;;;;;;;33.70;15.20;;;;;;;;;;5147029;27;20059;-60
2022/01/14 02:17:34;;;;;;;28.42;14.15;;;;;;;;;;5145492;27;20299;-60
2022/01/14 02:22:48;;;;;;;26.75;13.75;;;;;;;;;;5146657;27;20544;-60
2022/01/14 02:25:16;;;;;;;23.48;12.65;;;;;;;;;;5146728;27;20460;-60
2022/01/14 02:27:43;;;;;;;36.15;17.83;;;;;;;;;;5145182;27;20054;-60
2022/01/14 02:30:09;;;;;;;33.85;17.13;;;;;;;;;;5146363;27;20043;-61
2022/01/14 02:32:36;;;;;;;36.13;15.75;;;;;;;;;;5146445;27;20039;-60
2022/01/14 02:35:02;;;;;;;41.40;14.50;;;;;;;;;;5145542;27;20126;-60
2022/01/14 02:37:28;;;;;;;41.80;15.95;;;;;;;;;;5146080;27;20126;-60
2022/01/14 02:39:55;;;;;;;42.00;16.35;;;;;;;;;;5146233;27;20139;-61
2022/01/14 02:42:21;;;;;;;33.60;17.65;;;;;;;;;;5144840;27;20066;-60
2022/01/14 02:44:48;;;;;;;27.45;13.55;;;;;;;;;;5145195;27;20106;-60
2022/01/14 02:47:17;;;;;;;34.25;17.75;;;;;;;;;;5146583;27;20096;-60
2022/01/14 02:49:44;;;;;;;32.25;17.52;;;;;;;;;;5145462;27;20062;-60
2022/01/14 02:52:10;;;;;;;32.63;15.50;;;;;;;;;;5144283;27;20106;-60
2022/01/14 02:54:51;;;;;;;38.55;16.55;;;;;;;;;;5145968;27;20047;-60
2022/01/14 02:57:17;;;;;;;38.50;18.88;;;;;;;;;;5145378;27;20069;-60
2022/01/14 02:59:44;;;;;;;35.53;17.40;;;;;;;;;;5146104;27;20064;-61
2022/01/14 03:02:10;;;;;;;37.85;18.23;;;;;;;;;;5146335;27;20050;-60
2022/01/14 03:04:39;;;;;;;36.63;17.10;;;;;;;;;;5144282;27;20039;-60
2022/01/14 03:07:06;;;;;;;48.92;19.23;;;;;;;;;;5145329;27;20050;-60
2022/01/14 03:09:32;;;;;;;37.90;17.97;;;;;;;;;;5145859;27;20049;-60
2022/01/14 03:12:00;;;;;;;37.03;17.63;;;;;;;;;;5145517;27;20051;-62
2022/01/14 03:14:26;;;;;;;39.17;19.17;;;;;;;;;;5146224;27;20058;-60
2022/01/14 03:16:54;;;;;;;40.00;17.75;;;;;;;;;;5144346;27;20043;-60
2022/01/14 03:19:23;;;;;;;;;;;;;;;;;;5126823;27;20424;-60
2022/01/14 03:21:52;;;;;;;29.83;17.33;;;;;;;;;;5145071;27;19986;-60
2022/01/14 03:25:36;;;;;;;41.33;19.17;;;;;;;;;;5145662;27;20047;-61
2022/01/14 03:27:08;;;;;;;40.13;17.67;;;;;;;;;;5145452;27;20514;-61
2022/01/14 03:29:34;;;;;;;34.92;15.25;;;;;;;;;;5145468;27;20122;-61
2022/01/14 03:32:00;;;;;;;34.20;15.18;;;;;;;;;;5144574;27;20197;-60
2022/01/14 03:34:26;;;;;;;38.13;17.40;;;;;;;;;;5144931;28;20088;-60
2022/01/14 03:36:53;;;;;;;36.42;19.80;;;;;;;;;;5144968;27;20107;-60
2022/01/14 03:39:19;;;;;;;35.17;17.45;;;;;;;;;;5145447;27;20114;-60
2022/01/14 03:41:45;;;;;;;40.70;18.52;;;;;;;;;;5145131;27;20083;-60
2022/01/14 03:44:11;;;;;;;36.08;17.98;;;;;;;;;;5145354;27;20131;-60
2022/01/14 03:46:38;;;;;;;35.85;18.17;;;;;;;;;;5148170;27;20111;-60
2022/01/14 03:49:04;;;;;;;38.90;18.73;;;;;;;;;;5149328;27;20058;-60
2022/01/14 03:51:30;;;;;;;30.88;16.42;;;;;;;;;;5148459;27;20112;-60
2022/01/14 03:53:56;;;;;;;50.63;18.80;;;;;;;;;;5149438;27;20516;-60
2022/01/14 03:56:23;;;;;;;35.67;17.50;;;;;;;;;;5149353;27;20122;-60
2022/01/14 03:58:49;;;;;;;39.53;17.33;;;;;;;;;;5147837;27;20486;-60
2022/01/14 04:01:15;;;;;;;34.47;16.73;;;;;;;;;;5148000;27;20043;-60
2022/01/14 04:03:42;;;;;;;33.95;19.42;;;;;;;;;;5149141;27;20593;-60
2022/01/14 04:06:13;;;;;;;39.65;18.88;;;;;;;;;;5148814;27;20043;-60
2022/01/14 04:08:39;;;;;;;30.83;17.98;;;;;;;;;;5149450;27;20125;-60
2022/01/14 04:11:06;;;;;;;35.92;18.15;;;;;;;;;;5149230;27;20039;-60
2022/01/14 04:13:49;;;;;;;29.80;17.02;;;;;;;;;;5149119;27;20107;-60
2022/01/14 04:16:15;;;;;;;31.58;17.65;;;;;;;;;;5149326;27;20047;-60
2022/01/14 04:18:42;;;;;;;27.30;16.67;;;;;;;;;;5148794;27;20103;-60
2022/01/14 04:21:08;;;;;;;33.40;17.15;;;;;;;;;;5148444;27;20054;-60
2022/01/14 04:23:34;;;;;;;45.33;18.80;;;;;;;;;;5149085;27;20121;-61
2022/01/14 04:26:00;;;;;;;29.27;18.55;;;;;;;;;;5147633;27;20051;-60
2022/01/14 04:28:34;;;;;;;42.38;17.50;;;;;;;;;;5147218;27;20054;-60
2022/01/14 04:31:00;;;;;;;30.23;16.90;;;;;;;;;;5149231;27;20050;-61
2022/01/14 04:33:28;;;;;;;30.35;17.48;;;;;;;;;;5147131;27;20035;-60
2022/01/14 04:35:55;;;;;;;40.35;18.20;;;;;;;;;;5148382;27;20047;-60
2022/01/14 04:38:22;;;;;;;34.45;17.52;;;;;;;;;;5148570;27;20100;-60
2022/01/14 04:40:48;;;;;;;28.33;16.67;;;;;;;;;;5147368;27;20134;-60
2022/01/14 04:43:17;;;;;;;37.90;18.90;;;;;;;;;;5148769;27;20043;-60
2022/01/14 04:45:56;;;;;;;35.80;18.60;;;;;;;;;;5147648;27;20065;-60
2022/01/14 04:48:23;;;;;;;40.00;18.75;;;;;;;;;;5148410;27;20062;-61
2022/01/14 04:50:52;;;;;;;41.95;18.48;;;;;;;;;;5147745;27;20043;-61
2022/01/14 04:53:18;;;;;;;39.65;18.10;;;;;;;;;;5148593;27;20150;-60
2022/01/14 04:55:45;;;;;;;47.47;21.13;;;;;;;;;;5146432;27;20051;-60
2022/01/14 04:58:11;;;;;;;40.22;19.15;;;;;;;;;;5148209;27;20039;-60
2022/01/14 05:00:38;;;;;;;37.80;19.10;;;;;;;;;;5148647;27;20051;-60
2022/01/14 05:03:05;;;;;;;39.63;18.48;;;;;;;;;;5147102;27;20059;-60
2022/01/14 05:05:34;;;;;;;41.65;17.92;;;;;;;;;;5147608;27;20102;-61
2022/01/14 05:08:00;;;;;;;36.22;19.08;;;;;;;;;;5147147;27;20111;-60
2022/01/14 05:12:56;;;;;;;34.35;19.52;;;;;;;;;;5147745;27;20047;-60
2022/01/14 05:15:22;;;;;;;45.90;18.77;;;;;;;;;;5148115;27;20077;-60
2022/01/14 05:17:49;;;;;;;45.88;19.10;;;;;;;;;;5148050;27;20111;-60
2022/01/14 05:20:15;;;;;;;34.78;17.85;;;;;;;;;;5147060;27;20471;-60
2022/01/14 05:22:42;;;;;;;40.80;19.23;;;;;;;;;;5147782;27;20047;-60
2022/01/14 05:25:09;;;;;;;35.03;18.58;;;;;;;;;;5147841;27;20043;-60
2022/01/14 05:27:35;;;;;;;36.75;18.55;;;;;;;;;;5147528;27;20043;-60
2022/01/14 05:30:02;;;;;;;36.28;16.35;;;;;;;;;;5148056;27;20518;-61
2022/01/14 05:32:28;;;;;;;33.05;17.58;;;;;;;;;;5147651;27;20043;-60
2022/01/14 05:34:54;;;;;;;33.17;17.33;;;;;;;;;;5147415;27;20047;-60
2022/01/14 05:37:20;;;;;;;35.28;17.00;;;;;;;;;;5147009;27;20044;-60
2022/01/14 05:39:46;;;;;;;39.72;18.13;;;;;;;;;;5147378;27;20090;-60
2022/01/14 05:42:13;;;;;;;35.72;18.77;;;;;;;;;;5145375;27;20087;-60
2022/01/14 05:44:39;;;;;;;41.88;18.25;;;;;;;;;;5147477;27;20175;-60
2022/01/14 05:47:05;;;;;;;41.85;18.98;;;;;;;;;;5147334;27;20436;-60
2022/01/14 05:49:32;;;;;;;35.65;19.92;;;;;;;;;;5146879;27;20106;-60
2022/01/14 05:51:58;;;;;;;43.72;18.58;;;;;;;;;;5146817;27;20087;-60
2022/01/14 05:54:24;;;;;;;43.75;17.73;;;;;;;;;;5147277;27;20063;-60
2022/01/14 05:56:51;;;;;;;31.95;16.63;;;;;;;;;;5147152;27;20051;-60
2022/01/14 05:59:17;;;;;;;42.92;19.08;;;;;;;;;;5147185;27;20107;-60
2022/01/14 06:01:44;;;;;;;35.72;17.20;;;;;;;;;;5146987;27;20130;-60
2022/01/14 06:04:10;;;;;;;39.20;18.92;;;;;;;;;;5146921;27;20407;-61
2022/01/14 06:06:36;;;;;;;32.78;18.92;;;;;;;;;;5146604;27;20047;-60
2022/01/14 06:09:03;;;;;;;40.45;19.38;;;;;;;;;;5145837;27;20047;-60
2022/01/14 06:11:29;;;;;;;30.77;15.88;;;;;;;;;;5146946;27;20043;-60
2022/01/14 06:13:55;;;;;;;40.70;20.08;;;;;;;;;;5146649;27;20155;-60
2022/01/14 06:16:21;;;;;;;35.33;18.25;;;;;;;;;;5146793;27;20110;-60
2022/01/14 06:18:48;;;;;;;36.00;19.17;;;;;;;;;;5146497;27;20059;-60
2022/01/14 06:21:14;;;;;;;31.38;16.85;;;;;;;;;;5145950;27;20102;-60
2022/01/14 06:23:40;;;;;;;37.40;17.65;;;;;;;;;;5146841;27;20047;-60
2022/01/14 06:26:07;;;;;;;29.73;16.30;;;;;;;;;;5146395;27;20098;-60
2022/01/14 06:28:33;;;;;;;37.20;19.70;;;;;;;;;;5146522;27;20076;-61
2022/01/14 06:30:59;;;;;;;37.05;17.15;;;;;;;;;;5145156;27;20062;-61
2022/01/14 06:33:26;;;;;;;33.83;19.70;;;;;;;;;;5146295;27;20043;-61
2022/01/14 06:35:52;;;;;;;36.78;18.42;;;;;;;;;;5144847;27;20274;-61
2022/01/14 06:38:19;;;;;;;33.97;19.30;;;;;;;;;;5146725;27;20039;-61
2022/01/14 06:40:48;;;;;;;34.80;17.43;;;;;;;;;;5145688;27;20055;-61
2022/01/14 06:43:15;;;;;;;26.90;15.45;;;;;;;;;;5145724;27;20058;-61
2022/01/14 06:45:41;;;;;;;31.95;16.75;;;;;;;;;;5146021;27;20039;-60
2022/01/14 06:48:08;;;;;;;39.78;15.88;;;;;;;;;;5146246;27;20051;-61
2022/01/14 06:50:34;;;;;;;30.17;14.98;;;;;;;;;;5144588;27;20039;-61
2022/01/14 06:53:00;;;;;;;28.05;14.82;;;;;;;;;;5144888;27;20075;-61
2022/01/14 06:55:26;;;;;;;31.85;14.05;;;;;;;;;;5145984;27;20038;-61
2022/01/14 06:57:52;;;;;;;29.02;14.18;;;;;;;;;;5145861;27;20519;-60
2022/01/14 07:00:19;;;;;;;37.15;16.95;;;;;;;;;;5144715;27;20058;-60
2022/01/14 07:02:45;;;;;;;38.60;14.25;;;;;;;;;;5145791;27;20039;-60
2022/01/14 07:05:12;;;;;;;28.02;13.80;;;;;;;;;;5146005;27;20058;-60
2022/01/14 07:07:38;;;;;;;30.48;13.63;;;;;;;;;;5146076;27;20046;-60
2022/01/14 07:10:06;;;;;;;37.75;13.57;;;;;;;;;;5147610;27;20050;-60
2022/01/14 07:12:33;;;;;;;35.03;12.38;;;;;;;;;;5137691;27;20052;-60
2022/01/14 07:15:00;;;;;;;28.02;12.43;;;;;;;;;;5145180;27;20074;-60
2022/01/14 07:17:27;;;;;;;30.13;13.38;;;;;;;;;;5145191;27;20068;-60
2022/01/14 07:19:55;;;;;;;35.57;12.40;;;;;;;;;;5145531;27;20049;-60
2022/01/14 07:22:22;;;;;;;24.63;12.52;;;;;;;;;;5144560;27;20070;-60
2022/01/14 07:24:48;;;;;;;33.28;12.00;;;;;;;;;;5145358;27;20045;-61
2022/01/14 07:27:15;;;;;;;29.52;12.27;;;;;;;;;;5144114;27;20510;-60
2022/01/14 07:29:41;;;;;;;26.33;11.60;;;;;;;;;;5145686;27;20053;-60
2022/01/14 07:32:08;;;;;;;28.17;11.18;;;;;;;;;;5144851;27;20066;-60
2022/01/14 07:34:34;;;;;;;33.67;10.77;;;;;;;;;;5145291;27;20056;-60
2022/01/14 07:37:01;;;;;;;26.58;11.20;;;;;;;;;;5144864;28;20047;-60
2022/01/14 07:39:27;;;;;;;31.60;9.77;;;;;;;;;;5145372;28;20087;-60
2022/01/14 07:41:54;;;;;;;30.70;10.68;;;;;;;;;;5146167;27;20055;-60
2022/01/14 07:44:21;;;;;;;27.70;9.82;;;;;;;;;;5149328;27;20042;-60
2022/01/14 07:46:50;;;;;;;32.55;9.80;;;;;;;;;;5166007;27;20060;-60
2022/01/14 07:49:16;;;;;;;20.50;9.20;;;;;;;;;;5147051;27;20043;-60
2022/01/14 07:51:42;;;;;;;27.00;10.63;;;;;;;;;;5137181;27;20506;-60
2022/01/14 07:54:09;;;;;;;21.08;11.13;;;;;;;;;;5143634;27;20118;-60
2022/01/14 07:56:36;;;;;;;23.08;8.98;;;;;;;;;;5140597;27;20036;-60
2022/01/14 07:59:03;;;;;;;32.60;10.23;;;;;;;;;;5152005;27;20114;-60
2022/01/14 08:01:29;;;;;;;26.80;9.95;;;;;;;;;;5151598;27;20070;-60
2022/01/14 08:03:55;;;;;;;30.20;10.32;;;;;;;;;;5143566;27;20151;-60
2022/01/14 08:06:24;;;;;;;22.90;9.63;;;;;;;;;;5142507;27;20110;-60
2022/01/14 08:08:50;;;;;;;18.13;8.35;;;;;;;;;;5148445;27;20050;-60
2022/01/14 08:11:16;;;;;;;19.20;8.10;;;;;;;;;;5144762;28;20049;-60
2022/01/14 08:13:43;;;;;;;25.27;9.20;;;;;;;;;;5151564;27;20168;-60
2022/01/14 08:16:09;;;;;;;24.58;8.55;;;;;;;;;;5145138;27;20054;-60
2022/01/14 08:18:36;;;;;;;22.85;7.30;;;;;;;;;;5145073;27;20495;-60
2022/01/14 08:21:03;;;;;;;16.92;6.32;;;;;;;;;;5143974;27;20110;-60
2022/01/14 08:23:29;;;;;;;26.02;8.23;;;;;;;;;;5157664;27;20047;-60
2022/01/14 08:25:57;;;;;;;22.63;8.27;;;;;;;;;;5145940;27;20071;-61
2022/01/14 08:28:23;;;;;;;18.50;7.82;;;;;;;;;;5143344;28;20124;-60
2022/01/14 08:30:50;;;;;;;16.40;6.25;;;;;;;;;;5145627;27;20053;-60
2022/01/14 08:33:16;;;;;;;24.75;8.32;;;;;;;;;;5148599;27;20486;-60
2022/01/14 08:35:42;;;;;;;18.90;7.35;;;;;;;;;;5146831;27;20188;-60
2022/01/14 08:38:09;;;;;;;19.85;7.97;;;;;;;;;;5148331;27;20039;-60
2022/01/14 08:40:35;;;;;;;20.67;7.88;;;;;;;;;;5147030;27;20035;-60
2022/01/14 08:43:02;;;;;;;28.80;9.23;;;;;;;;;;5148263;27;20058;-60
2022/01/14 08:45:28;;;;;;;19.17;7.25;;;;;;;;;;5148568;27;20411;-60
2022/01/14 08:47:55;;;;;;;23.42;8.70;;;;;;;;;;5148542;27;20039;-61
2022/01/14 08:50:25;;;;;;;22.45;6.93;;;;;;;;;;5147938;27;20058;-60
2022/01/14 08:52:52;;;;;;;15.63;6.47;;;;;;;;;;5149290;27;20133;-60
2022/01/14 08:55:19;;;;;;;26.60;8.35;;;;;;;;;;5147645;27;20058;-60
2022/01/14 08:57:45;;;;;;;15.40;7.25;;;;;;;;;;5147870;27;20054;-60
2022/01/14 09:00:13;;;;;;;17.90;6.30;;;;;;;;;;5147535;27;20107;-60
2022/01/14 09:02:39;;;;;;;25.95;7.18;;;;;;;;;;5147740;27;20085;-60
2022/01/14 09:05:05;;;;;;;23.73;7.35;;;;;;;;;;5146642;27;20039;-60
2022/01/14 09:07:32;;;;;;;25.85;6.40;;;;;;;;;;5147587;27;20079;-60
2022/01/14 09:09:58;;;;;;;22.10;7.10;;;;;;;;;;5149613;27;20097;-60
2022/01/14 09:12:24;;;;;;;19.50;6.53;;;;;;;;;;5141582;27;20043;-60
2022/01/14 09:14:50;;;;;;;13.50;5.95;;;;;;;;;;5136892;27;20061;-60
2022/01/14 09:17:17;;;;;;;14.27;5.60;;;;;;;;;;5143516;27;20035;-60
2022/01/14 09:19:44;;;;;;;17.00;6.25;;;;;;;;;;5147067;27;20065;-60
2022/01/14 09:22:15;;;;;;;22.10;5.45;;;;;;;;;;5146269;27;20058;-60
2022/01/14 09:24:41;;;;;;;12.57;5.38;;;;;;;;;;5147144;27;20039;-60
2022/01/14 09:27:07;;;;;;;19.83;5.38;;;;;;;;;;5146532;27;20047;-60
2022/01/14 09:29:33;;;;;;;17.70;5.90;;;;;;;;;;5142856;27;20481;-60
2022/01/14 09:31:59;;;;;;;17.05;5.25;;;;;;;;;;5139349;27;20180;-61
2022/01/14 09:34:25;;;;;;;17.17;5.63;;;;;;;;;;5146760;27;20094;-60
2022/01/14 09:36:51;;;;;;;17.40;4.40;;;;;;;;;;5145783;27;20138;-60
2022/01/14 09:39:18;;;;;;;19.90;4.72;;;;;;;;;;5146474;27;20039;-60
2022/01/14 09:41:44;;;;;;;14.32;5.03;;;;;;;;;;5145598;27;20087;-60
2022/01/14 09:44:14;;;;;;;13.90;4.30;;;;;;;;;;5146861;27;20054;-60
2022/01/14 09:46:40;;;;;;;21.90;4.35;;;;;;;;;;5145738;27;20094;-60
2022/01/14 09:49:06;;;;;;;21.35;4.97;;;;;;;;;;5146092;27;20043;-61
2022/01/14 09:51:32;;;;;;;19.85;3.83;;;;;;;;;;5145809;27;20122;-60
2022/01/14 09:53:58;;;;;;;15.60;4.38;;;;;;;;;;5144988;27;20043;-60
2022/01/14 09:56:25;;;;;;;19.65;4.95;;;;;;;;;;5146752;27;20054;-60
2022/01/14 09:58:51;;;;;;;20.38;4.32;;;;;;;;;;5146238;27;20039;-60
2022/01/14 10:01:19;;;;;;;14.90;3.92;;;;;;;;;;5146237;27;20043;-63
2022/01/14 10:03:56;;;;;;;13.77;3.35;;;;;;;;;;5143932;27;20062;-60
2022/01/14 10:06:38;;;;;;;13.60;3.33;;;;;;;;;;5145662;27;20046;-60
2022/01/14 10:09:10;;;;;;;26.00;4.53;;;;;;;;;;5141227;27;20043;-60
2022/01/14 10:11:37;;;;;;;21.85;3.13;;;;;;;;;;5145368;27;20043;-59
2022/01/14 10:14:07;;;;;;;18.23;3.50;;;;;;;;;;5138419;27;20046;-60
2022/01/14 10:16:33;;;;;;;14.93;3.58;;;;;;;;;;5146823;27;20285;-60
2022/01/14 10:18:59;;;;;;;15.07;3.75;;;;;;;;;;5145557;27;20047;-60
2022/01/14 10:21:31;;;;;;;16.13;3.47;;;;;;;;;;5145453;27;20047;-60
2022/01/14 10:23:59;;;;;;;10.85;4.32;;;;;;;;;;5142759;27;20073;-63
2022/01/14 10:26:26;;;;;;;16.45;3.72;;;;;;;;;;5146007;27;20074;-60
2022/01/14 10:29:06;;;;;;;16.30;3.38;;;;;;;;;;5146151;27;20051;-60
2022/01/14 10:31:36;;;;;;;16.33;3.47;;;;;;;;;;5146182;27;20076;-60
2022/01/14 10:34:15;;;;;;;11.85;3.13;;;;;;;;;;5146342;27;20099;-60
2022/01/14 10:36:45;;;;;;;19.63;4.38;;;;;;;;;;5143220;27;20058;-67
2022/01/14 10:39:19;;;;;;;15.43;3.28;;;;;;;;;;5146283;27;20047;-64
2022/01/14 10:41:46;;;;;;;16.60;3.75;;;;;;;;;;5144923;27;20116;-63
2022/01/14 10:44:24;;;;;;;17.20;3.25;;;;;;;;;;5144741;27;20057;-65
2022/01/14 10:47:09;;;;;;;16.38;3.63;;;;;;;;;;5144579;27;20055;-65
2022/01/14 10:49:37;;;;;;;18.15;3.65;;;;;;;;;;5147772;27;20035;-65
2022/01/14 10:52:10;;;;;;;15.75;3.55;;;;;;;;;;5144141;27;20050;-66
2022/01/14 10:54:41;;;;;;;15.00;4.07;;;;;;;;;;5144537;27;20518;-64
2022/01/14 10:57:14;;;;;;;17.48;3.35;;;;;;;;;;5158490;27;20039;-65
2022/01/14 10:59:40;;;;;;;20.73;3.65;;;;;;;;;;5133954;27;20050;-64
2022/01/14 11:02:25;;;;;;;23.00;4.45;;;;;;;;;;5145720;27;20098;-62
2022/01/14 11:05:01;;;;;;;19.35;3.58;;;;;;;;;;5144005;27;20051;-63
2022/01/14 11:07:28;;;;;;;20.17;4.10;;;;;;;;;;5139152;27;20071;-62
2022/01/14 11:09:56;;;;;;;20.40;3.80;;;;;;;;;;5144976;27;20035;-63
2022/01/14 11:12:22;;;;;;;;;;;;;;;;;;5136176;27;20047;-66
2022/01/14 11:14:48;;;;;;;16.88;4.65;;;;;;;;;;5145630;27;19966;-64
2022/01/14 11:17:14;;;;;;;21.83;5.18;;;;;;;;;;5145325;27;20047;-64
2022/01/14 11:19:42;;;;;;;20.50;4.80;;;;;;;;;;5145203;27;20064;-67
2022/01/14 11:24:53;;;;;;;17.83;4.97;;;;;;;;;;5143288;27;20058;-65
2022/01/14 11:27:19;;;;;;;19.90;4.45;;;;;;;;;;5144613;27;20035;-63
2022/01/14 11:29:51;;;;;;;14.55;4.53;;;;;;;;;;5137988;27;20039;-62
2022/01/14 11:32:18;;;;;;;22.77;4.78;;;;;;;;;;5136300;27;20046;-65
2022/01/14 11:34:45;;;;;;;16.60;3.70;;;;;;;;;;5144571;28;20046;-64
2022/01/14 11:37:14;;;;;;;23.52;4.75;;;;;;;;;;5145642;28;20039;-66
2022/01/14 11:39:41;;;;;;;19.50;4.45;;;;;;;;;;5138650;27;20042;-61
2022/01/14 11:42:14;;;;;;;21.93;4.87;;;;;;;;;;5142800;27;20079;-61
2022/01/14 11:44:53;;;;;;;22.38;4.22;;;;;;;;;;5138388;27;20110;-67
2022/01/14 11:47:22;;;;;;;20.85;4.82;;;;;;;;;;5142333;28;20111;-68
2022/01/14 11:49:48;;;;;;;23.63;5.78;;;;;;;;;;5141955;28;20057;-65
2022/01/14 11:52:14;;;;;;;18.40;4.72;;;;;;;;;;5144605;28;20061;-65
2022/01/14 11:54:45;;;;;;;21.38;5.00;;;;;;;;;;5145225;28;20047;-63
2022/01/14 11:57:13;;;;;;;30.25;6.22;;;;;;;;;;5144123;28;20050;-66
2022/01/14 11:59:40;;;;;;;18.75;6.03;;;;;;;;;;5142204;28;20039;-66
2022/01/14 12:02:26;;;;;;;26.30;6.07;;;;;;;;;;5144735;28;20050;-66
2022/01/14 12:05:09;;;;;;;20.17;4.78;;;;;;;;;;5140202;27;20285;-66
2022/01/14 12:08:07;;;;;;;24.13;4.95;;;;;;;;;;5148923;27;20069;-66
2022/01/14 12:10:35;;;;;;;26.63;5.75;;;;;;;;;;5139991;27;20103;-66
2022/01/14 12:13:01;;;;;;;;;;;;;;;;;;5148053;27;20047;-66
2022/01/14 12:15:47;;;;;;;23.23;4.95;;;;;;;;;;5149045;27;19919;-66
2022/01/14 12:18:13;;;;;;;20.98;4.75;;;;;;;;;;5164643;27;20051;-66
2022/01/14 12:20:49;;;;;;;22.58;5.45;;;;;;;;;;5147709;27;20045;-66
2022/01/14 12:23:18;;;;;;;25.33;4.75;;;;;;;;;;5149191;27;20054;-66
2022/01/14 12:25:45;;;;;;;19.92;5.25;;;;;;;;;;5149042;27;20061;-66
2022/01/14 12:28:21;;;;;;;18.63;5.00;;;;;;;;;;5148427;27;20514;-66
2022/01/14 12:31:17;;;;;;;26.23;5.22;;;;;;;;;;5148653;27;20114;-66
2022/01/14 12:33:48;;;;;;;24.40;6.72;;;;;;;;;;5135461;27;20051;-66
2022/01/14 12:36:16;;;;;;;27.75;4.78;;;;;;;;;;5148030;27;20080;-66
2022/01/14 12:38:42;;;;;;;30.20;5.47;;;;;;;;;;5148964;27;20062;-66
2022/01/14 12:41:15;;;;;;;24.10;4.82;;;;;;;;;;5148455;27;20075;-66
2022/01/14 12:43:51;;;;;;;20.33;5.57;;;;;;;;;;5148858;27;20043;-66
2022/01/14 12:46:35;;;;;;;20.85;5.20;;;;;;;;;;5148873;27;20039;-66
2022/01/14 12:49:09;;;;;;;29.23;6.07;;;;;;;;;;5148526;27;20040;-66
2022/01/14 12:51:35;;;;;;;23.92;5.47;;;;;;;;;;5147347;27;20400;-66
2022/01/14 12:54:04;;;;;;;29.42;5.43;;;;;;;;;;5147777;27;20118;-65
2022/01/14 12:56:34;;;;;;;22.73;5.45;;;;;;;;;;5148504;27;20049;-66
2022/01/14 12:59:00;;;;;;;27.85;6.20;;;;;;;;;;5148176;27;20068;-66
2022/01/14 13:01:31;;;;;;;27.77;5.97;;;;;;;;;;5148084;27;20086;-66
2022/01/14 13:03:58;;;;;;;23.77;5.55;;;;;;;;;;5148423;27;20043;-66
2022/01/14 13:06:24;;;;;;;28.50;6.80;;;;;;;;;;5147728;27;20072;-66
2022/01/14 13:08:58;;;;;;;28.95;6.25;;;;;;;;;;5146809;27;20062;-66
2022/01/14 13:11:24;;;;;;;30.08;5.00;;;;;;;;;;5147557;27;20051;-65
2022/01/14 13:13:57;;;;;;;23.13;5.93;;;;;;;;;;5148044;27;20043;-65
2022/01/14 13:16:24;;;;;;;27.08;5.78;;;;;;;;;;5147086;27;20484;-65
2022/01/14 13:18:50;;;;;;;22.25;5.60;;;;;;;;;;5148004;27;20054;-67
2022/01/14 13:21:16;;;;;;;24.48;6.90;;;;;;;;;;5147192;27;20050;-65
2022/01/14 13:23:46;;;;;;;23.77;5.22;;;;;;;;;;5148092;27;20411;-66
2022/01/14 13:26:12;;;;;;;27.45;6.72;;;;;;;;;;5147574;27;20146;-66
2022/01/14 13:28:38;;;;;;;26.23;5.00;;;;;;;;;;5147621;27;20107;-67
2022/01/14 13:31:10;;;;;;;33.75;7.25;;;;;;;;;;5147429;27;20065;-66
2022/01/14 13:33:37;;;;;;;34.88;6.97;;;;;;;;;;5148134;27;20050;-66
2022/01/14 13:36:03;;;;;;;30.65;7.32;;;;;;;;;;5146950;27;20073;-66
2022/01/14 13:38:29;;;;;;;32.33;6.72;;;;;;;;;;5147569;27;20054;-66
2022/01/14 13:40:57;;;;;;;41.33;6.10;;;;;;;;;;5147248;27;20051;-65
2022/01/14 13:43:26;;;;;;;36.55;6.65;;;;;;;;;;5145679;27;20047;-65
2022/01/14 13:46:02;;;;;;;30.08;5.72;;;;;;;;;;5147384;27;20104;-65
2022/01/14 13:48:28;;;;;;;34.72;7.70;;;;;;;;;;5145375;27;20039;-66
2022/01/14 13:51:08;;;;;;;28.02;7.30;;;;;;;;;;5145273;27;20043;-66
2022/01/14 13:53:38;;;;;;;26.98;6.13;;;;;;;;;;5146136;27;20051;-67
2022/01/14 13:56:06;;;;;;;32.97;6.78;;;;;;;;;;5145703;27;20066;-67
2022/01/14 13:58:33;;;;;;;22.38;6.38;;;;;;;;;;5145927;27;20055;-65
2022/01/14 14:01:04;;;;;;;29.63;5.70;;;;;;;;;;5146963;27;20043;-65
2022/01/14 14:06:04;;;;;;;40.05;7.45;;;;;;;;;;5146112;27;20407;-67
2022/01/14 14:08:41;;;;;;;38.05;7.28;;;;;;;;;;5146373;27;20054;-66
2022/01/14 14:17:16;;;;;;;35.00;7.03;;;;;;;;;;5146643;27;20050;-66
2022/01/14 14:19:42;;;;;;;46.72;7.75;;;;;;;;;;5143708;27;20093;-65
2022/01/14 14:22:17;;;;;;;37.17;7.75;;;;;;;;;;5145627;27;20106;-65
2022/01/14 14:25:08;;;;;;;45.20;7.70;;;;;;;;;;5162817;27;20051;-66
2022/01/14 14:27:36;;;;;;;35.63;7.85;;;;;;;;;;5146797;27;20108;-65
2022/01/14 14:30:07;;;;;;;35.08;7.65;;;;;;;;;;5160779;27;20062;-65
2022/01/14 14:32:37;;;;;;;33.58;7.13;;;;;;;;;;5147035;27;20066;-66
2022/01/14 14:35:22;;;;;;;34.72;8.57;;;;;;;;;;5145726;27;20127;-66
2022/01/14 14:37:53;;;;;;;30.75;7.22;;;;;;;;;;5145125;27;20043;-66
2022/01/14 14:40:22;;;;;;;28.23;7.82;;;;;;;;;;5146293;27;20061;-66
2022/01/14 14:42:48;;;;;;;33.28;6.05;;;;;;;;;;5146301;27;20058;-65
2022/01/14 14:45:15;;;;;;;29.80;7.38;;;;;;;;;;5145938;27;20075;-66
2022/01/14 14:47:41;;;;;;;45.33;8.25;;;;;;;;;;5146174;27;20046;-65
2022/01/14 14:50:09;;;;;;;43.85;9.82;;;;;;;;;;5145320;27;20040;-65
2022/01/14 14:52:35;;;;;;;46.65;9.52;;;;;;;;;;5145068;27;20102;-66
2022/01/14 14:55:02;;;;;;;28.38;8.18;;;;;;;;;;5145673;27;20049;-67
2022/01/14 14:57:29;;;;;;;32.97;7.45;;;;;;;;;;5145845;27;20043;-67